createdAt,value
2019-02-27T00:01:05.921Z,39.77
2019-02-27T00:03:35.534Z,36.45
2019-02-27T00:06:04.917Z,36.77
2019-02-27T00:08:34.306Z,36.77
2019-02-27T00:11:04.078Z,37.53
2019-02-27T00:13:33.603Z,38.85
2019-02-27T00:16:03.070Z,42.90
2019-02-27T00:18:32.419Z,39.90
2019-02-27T00:21:01.820Z,40.67
2019-02-27T00:23:31.502Z,39.98
2019-02-27T00:26:00.856Z,38.63
2019-02-27T00:28:30.225Z,39.58
2019-02-27T00:30:59.760Z,38.02
2019-02-27T00:33:29.169Z,39.45
2019-02-27T00:35:58.534Z,39.70
2019-02-27T00:38:27.946Z,39.58
2019-02-27T00:40:57.311Z,39.05
2019-02-27T00:43:28.392Z,40.70
2019-02-27T00:45:57.936Z,38.78
2019-02-27T00:48:27.734Z,40.28
2019-02-27T00:50:57.088Z,40.05
2019-02-27T00:53:26.492Z,38.80
2019-02-27T00:55:55.856Z,38.63
2019-02-27T00:58:27.047Z,38.65
2019-02-27T01:01:15.408Z,38.65
2019-02-27T01:03:44.862Z,39.27
2019-02-27T01:06:14.651Z,38.00
2019-02-27T01:08:44.932Z,38.70
2019-02-27T01:11:18.118Z,37.63
2019-02-27T01:13:45.683Z,37.78
2019-02-27T01:16:17.327Z,39.23
2019-02-27T01:18:46.096Z,39.00
2019-02-27T01:21:19.091Z,39.20
2019-02-27T01:23:46.442Z,38.63
2019-02-27T01:26:15.758Z,37.80
2019-02-27T01:28:45.632Z,37.95
2019-02-27T01:31:15.151Z,38.15
2019-02-27T01:33:44.566Z,37.30
2019-02-27T01:36:13.978Z,38.92
2019-02-27T01:38:43.331Z,39.48
2019-02-27T01:41:12.696Z,39.25
2019-02-27T01:43:42.059Z,38.50
2019-02-27T01:46:11.577Z,39.00
2019-02-27T01:48:43.593Z,39.38
2019-02-27T01:51:11.933Z,39.30
2019-02-27T01:53:41.316Z,38.53
2019-02-27T01:56:10.687Z,40.03
2019-02-27T01:58:43.291Z,39.55
2019-02-27T02:01:11.192Z,39.97
2019-02-27T02:03:40.462Z,38.98
2019-02-27T02:06:09.811Z,38.08
2019-02-27T02:08:39.283Z,38.30
2019-02-27T02:11:08.858Z,38.10
2019-02-27T02:13:50.114Z,39.27
2019-02-27T02:17:04.972Z,38.80
2019-02-27T02:20:15.739Z,38.73
2019-02-27T02:23:22.344Z,39.00
2019-02-27T02:26:27.260Z,38.35
2019-02-27T02:29:52.959Z,36.80
2019-02-27T02:32:52.053Z,39.73
2019-02-27T02:36:15.878Z,38.40
2019-02-27T02:39:28.386Z,38.75
2019-02-27T02:42:18.166Z,38.02
2019-02-27T02:45:32.776Z,38.38
2019-02-27T02:48:41.104Z,38.15
2019-02-27T02:51:52.325Z,37.75
2019-02-27T02:54:57.510Z,35.38
2019-02-27T02:57:40.166Z,37.20
2019-02-27T03:01:05.603Z,36.53
2019-02-27T03:03:48.200Z,37.00
2019-02-27T03:06:53.335Z,37.83
2019-02-27T03:09:31.737Z,37.48
2019-02-27T03:12:40.835Z,38.28
2019-02-27T03:15:41.420Z,36.98
2019-02-27T03:18:38.718Z,36.73
2019-02-27T03:22:10.425Z,36.42
2019-02-27T03:25:10.524Z,35.13
2019-02-27T03:28:04.875Z,36.75
2019-02-27T03:31:18.470Z,36.48
2019-02-27T03:34:27.612Z,36.55
2019-02-27T03:37:30.196Z,36.40
2019-02-27T03:40:39.177Z,37.65
2019-02-27T03:43:35.962Z,36.58
2019-02-27T03:47:01.139Z,35.75
2019-02-27T03:50:14.666Z,36.38
2019-02-27T03:53:11.888Z,35.65
2019-02-27T03:56:28.194Z,37.10
2019-02-27T03:59:34.496Z,36.13
2019-02-27T04:02:43.947Z,36.03
2019-02-27T04:05:58.707Z,35.95
2019-02-27T04:08:59.930Z,36.50
2019-02-27T04:11:29.609Z,37.13
2019-02-27T04:14:03.910Z,37.83
2019-02-27T04:16:31.776Z,35.57
2019-02-27T04:19:04.621Z,36.38
2019-02-27T04:21:31.857Z,37.00
2019-02-27T04:24:00.942Z,36.15
2019-02-27T04:26:30.016Z,35.90
2019-02-27T04:29:04.002Z,36.15
2019-02-27T04:31:30.736Z,35.92
2019-02-27T04:34:00.917Z,36.33
2019-02-27T04:36:30.496Z,37.80
2019-02-27T04:39:00.061Z,37.53
2019-02-27T04:41:30.415Z,36.03
2019-02-27T04:43:59.698Z,38.05
2019-02-27T04:46:29.093Z,36.88
2019-02-27T04:48:58.263Z,37.23
2019-02-27T04:51:27.546Z,35.85
2019-02-27T04:53:56.702Z,36.20
2019-02-27T04:56:25.831Z,37.70
2019-02-27T04:58:54.924Z,36.65
2019-02-27T05:01:24.038Z,36.83
2019-02-27T05:03:53.196Z,35.43
2019-02-27T05:06:22.331Z,37.60
2019-02-27T05:08:51.482Z,36.93
2019-02-27T05:11:20.587Z,37.78
2019-02-27T05:13:54.005Z,37.78
2019-02-27T05:16:21.260Z,40.08
2019-02-27T05:18:50.404Z,38.98
2019-02-27T05:21:19.794Z,39.53
2019-02-27T05:23:49.046Z,39.50
2019-02-27T05:26:18.166Z,39.42
2019-02-27T05:28:47.271Z,41.13
2019-02-27T05:31:19.057Z,42.73
2019-02-27T05:33:49.343Z,38.70
2019-02-27T05:36:18.534Z,38.85
2019-02-27T05:38:47.602Z,39.90
2019-02-27T05:41:17.074Z,39.45
2019-02-27T05:43:48.563Z,40.25
2019-02-27T05:46:16.953Z,40.20
2019-02-27T05:48:46.039Z,40.17
2019-02-27T05:51:15.551Z,39.55
2019-02-27T05:53:44.666Z,38.75
2019-02-27T05:56:16.262Z,40.05
2019-02-27T05:58:44.705Z,41.57
2019-02-27T06:01:13.881Z,42.20
2019-02-27T06:03:43.073Z,40.50
2019-02-27T06:06:12.493Z,40.03
2019-02-27T06:08:41.658Z,39.57
2019-02-27T06:11:10.744Z,40.50
2019-02-27T06:13:39.881Z,40.78
2019-02-27T06:16:09.357Z,40.70
2019-02-27T06:18:38.735Z,39.75
2019-02-27T06:21:08.182Z,42.00
2019-02-27T06:23:37.875Z,40.20
2019-02-27T06:26:07.843Z,41.30
2019-02-27T06:28:36.964Z,41.25
2019-02-27T06:31:06.150Z,41.83
2019-02-27T06:33:35.250Z,40.77
2019-02-27T06:36:05.354Z,41.80
2019-02-27T06:38:35.159Z,42.05
2019-02-27T06:41:04.320Z,42.30
2019-02-27T06:43:33.510Z,39.53
2019-02-27T06:46:02.607Z,41.95
2019-02-27T06:48:31.707Z,42.27
2019-02-27T06:51:01.538Z,41.53
2019-02-27T06:53:30.848Z,41.42
2019-02-27T06:56:02.920Z,38.88
2019-02-27T06:58:30.971Z,39.57
2019-02-27T07:01:00.059Z,39.05
2019-02-27T07:03:30.264Z,39.60
2019-02-27T07:06:00.047Z,39.85
2019-02-27T07:08:29.191Z,39.47
2019-02-27T07:11:09.895Z,39.23
2019-02-27T07:13:29.844Z,38.88
2019-02-27T07:15:59.222Z,40.80
2019-02-27T07:18:28.366Z,40.30
2019-02-27T07:20:58.427Z,40.00
2019-02-27T07:23:28.411Z,39.08
2019-02-27T07:25:57.685Z,40.52
2019-02-27T07:28:26.893Z,42.25
2019-02-27T07:30:56.079Z,39.30
2019-02-27T07:33:25.174Z,38.55
2019-02-27T07:35:54.251Z,39.80
2019-02-27T07:38:25.456Z,39.50
2019-02-27T07:40:54.313Z,38.05
2019-02-27T07:43:23.633Z,38.02
2019-02-27T07:45:54.290Z,38.95
2019-02-27T07:48:23.586Z,37.55
2019-02-27T07:50:52.698Z,38.27
2019-02-27T07:53:21.887Z,36.38
2019-02-27T07:55:52.474Z,35.40
2019-02-27T07:58:22.030Z,36.90
2019-02-27T08:00:51.118Z,34.63
2019-02-27T08:03:20.201Z,31.60
2019-02-27T08:05:49.387Z,30.55
2019-02-27T08:08:23.267Z,30.90
2019-02-27T08:10:49.324Z,31.50
2019-02-27T08:13:18.482Z,29.63
2019-02-27T08:15:47.622Z,29.40
2019-02-27T08:18:16.708Z,28.67
2019-02-27T08:20:45.890Z,28.07
2019-02-27T08:23:15.660Z,26.87
2019-02-27T08:25:44.943Z,27.05
2019-02-27T08:28:14.122Z,27.80
2019-02-27T08:30:43.247Z,27.35
2019-02-27T08:33:12.430Z,28.70
2019-02-27T08:35:41.613Z,27.10
2019-02-27T08:38:10.737Z,27.50
2019-02-27T08:40:39.857Z,25.62
2019-02-27T08:43:10.330Z,25.67
2019-02-27T08:45:40.075Z,23.83
2019-02-27T08:48:09.163Z,25.45
2019-02-27T08:50:38.286Z,24.35
2019-02-27T08:53:07.413Z,24.33
2019-02-27T08:55:38.990Z,24.23
2019-02-27T08:58:07.471Z,24.27
2019-02-27T09:00:36.834Z,25.25
2019-02-27T09:03:05.951Z,23.42
2019-02-27T09:05:35.113Z,24.63
2019-02-27T09:08:04.199Z,23.92
2019-02-27T09:10:33.384Z,25.57
2019-02-27T09:13:05.748Z,25.10
2019-02-27T09:15:33.301Z,26.60
2019-02-27T09:18:02.535Z,24.25
2019-02-27T09:20:31.888Z,25.07
2019-02-27T09:23:00.990Z,25.37
2019-02-27T09:25:30.172Z,26.25
2019-02-27T09:27:59.358Z,25.90
2019-02-27T09:30:29.477Z,25.88
2019-02-27T09:32:59.264Z,25.05
2019-02-27T09:35:32.533Z,24.92
2019-02-27T09:38:02.213Z,23.98
2019-02-27T09:40:31.373Z,23.83
2019-02-27T09:43:00.550Z,23.37
2019-02-27T09:45:31.152Z,23.47
2019-02-27T09:48:00.785Z,23.47
2019-02-27T09:50:38.209Z,23.00
2019-02-27T09:53:07.517Z,22.48
2019-02-27T09:55:36.723Z,21.77
2019-02-27T09:58:11.112Z,23.60
2019-02-27T10:00:46.130Z,23.83
2019-02-27T10:03:20.160Z,20.97
2019-02-27T10:05:47.827Z,19.75
2019-02-27T10:08:17.180Z,20.23
2019-02-27T10:10:46.494Z,22.00
2019-02-27T10:13:15.693Z,19.50
2019-02-27T10:15:45.000Z,20.10
2019-02-27T10:18:18.329Z,19.73
2019-02-27T10:20:45.222Z,19.65
2019-02-27T10:23:14.743Z,19.40
2019-02-27T10:25:44.237Z,19.23
2019-02-27T10:28:13.580Z,17.37
2019-02-27T10:30:42.954Z,16.97
2019-02-27T10:33:12.538Z,17.70
2019-02-27T10:35:41.775Z,17.92
2019-02-27T10:38:11.005Z,18.12
2019-02-27T10:40:40.266Z,18.95
2019-02-27T10:43:09.446Z,20.32
2019-02-27T10:45:38.737Z,19.85
2019-02-27T10:48:08.076Z,20.55
2019-02-27T10:50:37.368Z,18.98
2019-02-27T10:53:06.691Z,17.85
2019-02-27T10:55:36.038Z,17.02
2019-02-27T10:58:07.537Z,15.60
2019-02-27T11:00:36.935Z,16.82
2019-02-27T11:03:06.099Z,17.10
2019-02-27T11:05:35.370Z,17.65
2019-02-27T11:08:04.677Z,18.65
2019-02-27T11:10:33.819Z,18.73
2019-02-27T11:13:05.955Z,17.10
2019-02-27T11:15:34.094Z,16.25
2019-02-27T11:18:05.567Z,15.55
2019-02-27T11:20:34.395Z,14.87
2019-02-27T11:23:06.431Z,17.30
2019-02-27T11:25:34.535Z,15.68
2019-02-27T11:28:03.783Z,16.40
2019-02-27T11:30:36.868Z,16.57
2019-02-27T11:33:05.430Z,15.83
2019-02-27T11:35:34.615Z,17.77
2019-02-27T11:38:03.950Z,16.77
2019-02-27T11:40:33.428Z,17.60
2019-02-27T11:43:06.547Z,17.67
2019-02-27T11:45:34.121Z,14.13
2019-02-27T11:48:03.458Z,13.32
2019-02-27T11:50:32.879Z,13.32
2019-02-27T11:53:03.071Z,12.30
2019-02-27T11:55:32.491Z,12.88
2019-02-27T11:58:04.409Z,13.18
2019-02-27T12:00:33.487Z,12.50
2019-02-27T12:03:02.753Z,13.40
2019-02-27T12:05:34.293Z,13.37
2019-02-27T12:08:03.266Z,12.90
2019-02-27T12:10:32.677Z,15.08
2019-02-27T12:13:02.033Z,12.23
2019-02-27T12:15:31.450Z,11.75
2019-02-27T12:18:01.794Z,12.53
2019-02-27T12:20:31.226Z,12.95
2019-02-27T12:23:00.446Z,14.45
2019-02-27T12:25:30.206Z,12.10
2019-02-27T12:28:01.039Z,12.73
2019-02-27T12:30:30.360Z,12.93
2019-02-27T12:35:44.226Z,11.90
2019-02-27T12:38:12.462Z,11.43
2019-02-27T12:40:41.721Z,12.40
2019-02-27T12:43:11.075Z,14.03
2019-02-27T12:45:40.426Z,12.58
2019-02-27T12:48:12.587Z,13.03
2019-02-27T12:50:40.846Z,11.88
2019-02-27T12:53:10.267Z,11.20
2019-02-27T12:55:39.600Z,11.85
2019-02-27T12:58:08.949Z,11.10
2019-02-27T13:00:39.980Z,12.15
2019-02-27T13:03:09.669Z,12.75
2019-02-27T13:05:39.054Z,10.90
2019-02-27T13:08:08.454Z,11.48
2019-02-27T13:10:37.647Z,11.43
2019-02-27T13:13:06.938Z,11.10
2019-02-27T13:15:38.273Z,10.58
2019-02-27T13:18:07.207Z,8.93
2019-02-27T13:20:36.654Z,10.03
2019-02-27T13:23:06.072Z,9.68
2019-02-27T13:25:35.338Z,9.65
2019-02-27T13:28:04.694Z,9.95
2019-02-27T13:30:34.005Z,9.35
2019-02-27T13:33:03.333Z,9.10
2019-02-27T13:35:32.984Z,10.70
2019-02-27T13:38:02.257Z,8.98
2019-02-27T13:40:35.135Z,8.45
2019-02-27T13:43:02.684Z,10.00
2019-02-27T13:45:31.889Z,9.87
2019-02-27T13:48:04.890Z,8.50
2019-02-27T13:50:32.267Z,8.23
2019-02-27T13:53:01.625Z,7.83
2019-02-27T13:55:32.045Z,9.13
2019-02-27T13:58:03.587Z,10.32
2019-02-27T14:00:32.093Z,10.23
2019-02-27T14:03:01.217Z,11.88
2019-02-27T14:05:35.195Z,11.60
2019-02-27T14:08:01.282Z,12.37
2019-02-27T14:10:30.451Z,12.77
2019-02-27T14:12:59.637Z,11.30
2019-02-27T14:15:28.750Z,12.05
2019-02-27T14:17:57.953Z,12.68
2019-02-27T14:20:27.960Z,13.03
2019-02-27T14:22:58.209Z,11.17
2019-02-27T14:25:31.163Z,11.70
2019-02-27T14:28:02.192Z,10.23
2019-02-27T14:30:35.633Z,10.13
2019-02-27T14:33:05.095Z,10.25
2019-02-27T14:35:36.348Z,9.48
2019-02-27T14:38:05.262Z,9.85
2019-02-27T14:40:37.713Z,10.00
2019-02-27T14:43:05.751Z,9.43
2019-02-27T14:45:39.866Z,9.93
2019-02-27T14:48:05.770Z,10.55
2019-02-27T14:50:34.947Z,10.63
2019-02-27T14:53:04.453Z,11.80
2019-02-27T14:55:35.929Z,10.10
2019-02-27T14:58:04.706Z,9.80
2019-02-27T15:00:34.077Z,10.10
2019-02-27T15:03:03.554Z,9.55
2019-02-27T15:05:32.629Z,13.10
2019-02-27T15:08:02.056Z,9.60
2019-02-27T15:10:31.550Z,11.25
2019-02-27T15:13:00.815Z,10.70
2019-02-27T15:15:30.340Z,9.20
2019-02-27T15:17:59.820Z,10.50
2019-02-27T15:20:29.199Z,10.25
2019-02-27T15:22:58.366Z,9.28
2019-02-27T15:25:27.895Z,8.90
2019-02-27T15:27:58.810Z,9.33
2019-02-27T15:30:28.962Z,9.73
2019-02-27T15:32:58.153Z,10.13
2019-02-27T15:35:29.341Z,9.30
2019-02-27T15:37:58.428Z,9.88
2019-02-27T15:40:29.587Z,9.60
2019-02-27T15:42:58.627Z,9.65
2019-02-27T15:45:28.065Z,9.93
2019-02-27T15:47:57.126Z,9.40
2019-02-27T15:50:26.355Z,10.78
2019-02-27T15:52:55.536Z,10.48
2019-02-27T15:55:24.798Z,10.75
2019-02-27T15:57:54.276Z,9.18
2019-02-27T16:00:23.969Z,9.78
2019-02-27T16:02:53.240Z,10.60
2019-02-27T16:05:22.607Z,9.17
2019-02-27T16:07:51.858Z,9.60
2019-02-27T16:10:21.770Z,10.48
2019-02-27T16:12:50.993Z,10.82
2019-02-27T16:15:21.799Z,10.48
2019-02-27T16:17:50.876Z,10.80
2019-02-27T16:20:20.448Z,9.93
2019-02-27T16:22:49.570Z,11.68
2019-02-27T16:25:20.376Z,10.90
2019-02-27T16:27:49.590Z,11.10
2019-02-27T16:30:20.934Z,10.38
2019-02-27T16:32:50.144Z,10.40
2019-02-27T16:35:19.341Z,10.50
2019-02-27T16:37:48.597Z,11.83
2019-02-27T16:40:19.032Z,10.80
2019-02-27T16:42:48.226Z,9.60
2019-02-27T16:45:19.237Z,10.15
2019-02-27T16:47:48.326Z,9.33
2019-02-27T16:50:23.920Z,9.80
2019-02-27T16:52:50.116Z,11.05
2019-02-27T16:55:20.645Z,11.28
2019-02-27T16:57:49.806Z,10.35
2019-02-27T17:00:21.450Z,10.93
2019-02-27T17:02:50.724Z,9.43
2019-02-27T17:05:20.127Z,9.55
2019-02-27T17:07:49.554Z,16.55
2019-02-27T17:10:21.861Z,11.73
2019-02-27T17:12:51.051Z,12.35
2019-02-27T17:15:23.183Z,11.48
2019-02-27T17:17:53.234Z,9.80
2019-02-27T17:20:24.150Z,9.68
2019-02-27T17:22:53.577Z,10.70
2019-02-27T17:25:22.685Z,10.23
2019-02-27T17:27:53.556Z,11.40
2019-02-27T17:30:27.843Z,15.93
2019-02-27T17:32:57.156Z,21.80
2019-02-27T17:35:26.314Z,20.82
2019-02-27T17:37:55.584Z,21.15
2019-02-27T17:40:24.722Z,22.42
2019-02-27T17:42:54.450Z,15.45
2019-02-27T17:45:23.852Z,20.90
2019-02-27T17:47:52.993Z,15.50
2019-02-27T17:50:22.205Z,12.65
2019-02-27T17:52:51.462Z,12.37
2019-02-27T17:55:20.777Z,13.33
2019-02-27T17:57:50.299Z,12.90
2019-02-27T18:00:25.768Z,12.30
2019-02-27T18:02:54.898Z,12.37
2019-02-27T18:05:25.299Z,12.28
2019-02-27T18:07:54.902Z,12.90
2019-02-27T18:10:24.018Z,11.83
2019-02-27T18:12:53.184Z,12.82
2019-02-27T18:15:22.375Z,11.22
2019-02-27T18:17:51.654Z,11.88
2019-02-27T18:20:24.166Z,12.27
2019-02-27T18:22:52.018Z,12.53
2019-02-27T18:28:12.539Z,11.93
2019-02-27T18:30:42.712Z,12.25
2019-02-27T18:33:14.359Z,12.45
2019-02-27T18:35:43.131Z,11.93
2019-02-27T18:38:12.323Z,12.18
2019-02-27T18:40:42.774Z,12.18
2019-02-27T18:43:12.427Z,11.55
2019-02-27T18:45:41.516Z,11.95
2019-02-27T18:48:10.885Z,12.05
2019-02-27T18:50:40.049Z,12.80
2019-02-27T18:53:13.079Z,12.90
2019-02-27T18:55:40.251Z,12.28
2019-02-27T18:58:09.490Z,11.55
2019-02-27T19:00:38.584Z,11.55
2019-02-27T19:03:08.362Z,10.85
2019-02-27T19:05:40.856Z,12.00
2019-02-27T19:08:08.533Z,11.20
2019-02-27T19:10:41.358Z,11.15
2019-02-27T19:13:08.803Z,10.75
2019-02-27T19:15:37.907Z,10.43
2019-02-27T19:18:07.423Z,11.33
2019-02-27T19:20:36.900Z,10.55
2019-02-27T19:23:06.451Z,11.00
2019-02-27T19:25:35.834Z,11.18
2019-02-27T19:28:05.113Z,10.70
2019-02-27T19:30:34.823Z,11.53
2019-02-27T19:33:04.180Z,11.10
2019-02-27T19:35:33.356Z,11.28
2019-02-27T19:38:02.554Z,10.95
2019-02-27T19:40:31.597Z,10.40
2019-02-27T19:43:01.816Z,10.10
2019-02-27T19:45:30.948Z,10.25
2019-02-27T19:48:00.119Z,10.23
2019-02-27T19:50:29.300Z,11.20
2019-02-27T19:53:03.368Z,10.75
2019-02-27T19:55:29.270Z,10.78
2019-02-27T19:57:58.383Z,11.40
2019-02-27T20:00:33.900Z,9.90
2019-02-27T20:03:01.152Z,10.33
2019-02-27T20:05:29.535Z,9.53
2019-02-27T20:07:58.825Z,9.40
2019-02-27T20:10:30.990Z,9.38
2019-02-27T20:12:58.829Z,9.10
2019-02-27T20:15:28.036Z,9.33
2019-02-27T20:17:57.302Z,9.17
2019-02-27T20:20:26.593Z,8.95
2019-02-27T20:22:56.130Z,8.93
2019-02-27T20:25:25.831Z,8.95
2019-02-27T20:27:57.796Z,9.25
2019-02-27T20:30:26.467Z,9.15
2019-02-27T20:32:55.764Z,9.40
2019-02-27T20:35:24.875Z,8.73
2019-02-27T20:37:53.960Z,8.93
2019-02-27T20:40:23.087Z,9.20
2019-02-27T20:42:54.839Z,8.90
2019-02-27T20:45:23.349Z,8.33
2019-02-27T20:47:57.800Z,8.75
2019-02-27T20:50:35.909Z,10.00
2019-02-27T20:53:05.263Z,9.25
2019-02-27T20:55:34.538Z,8.95
2019-02-27T20:58:03.758Z,9.35
2019-02-27T21:00:35.921Z,8.75
2019-02-27T21:03:03.995Z,10.53
2019-02-27T21:05:33.484Z,16.52
2019-02-27T21:08:02.766Z,15.40
2019-02-27T21:10:32.734Z,12.90
2019-02-27T21:13:02.589Z,9.95
2019-02-27T21:15:32.358Z,21.68
2019-02-27T21:18:02.636Z,13.83
2019-02-27T21:20:33.259Z,18.65
2019-02-27T21:23:02.473Z,10.95
2019-02-27T21:25:31.601Z,9.70
2019-02-27T21:28:01.094Z,12.00
2019-02-27T21:30:30.252Z,8.80
2019-02-27T21:32:59.354Z,11.60
2019-02-27T21:35:29.876Z,11.70
2019-02-27T21:37:59.223Z,10.08
2019-02-27T21:40:28.288Z,8.48
2019-02-27T21:42:57.399Z,9.13
2019-02-27T21:45:26.503Z,7.53
2019-02-27T21:47:55.611Z,7.10
2019-02-27T21:50:24.868Z,8.17
2019-02-27T21:52:54.733Z,7.92
2019-02-27T21:55:25.015Z,7.25
2019-02-27T21:57:54.123Z,8.73
2019-02-27T22:00:24.299Z,8.17
2019-02-27T22:02:53.830Z,9.55
2019-02-27T22:05:23.049Z,9.60
2019-02-27T22:07:52.146Z,11.63
2019-02-27T22:10:21.635Z,8.90
2019-02-27T22:12:50.756Z,10.40
2019-02-27T22:15:23.225Z,8.00
2019-02-27T22:17:52.718Z,6.60
2019-02-27T22:20:25.910Z,6.62
2019-02-27T22:22:54.559Z,9.13
2019-02-27T22:25:23.686Z,12.63
2019-02-27T22:27:52.753Z,8.63
2019-02-27T22:30:21.857Z,8.53
2019-02-27T22:32:50.934Z,7.85
2019-02-27T22:35:20.054Z,8.48
2019-02-27T22:37:52.475Z,8.70
2019-02-27T22:40:19.988Z,6.33
2019-02-27T22:42:49.362Z,13.93
2019-02-27T22:45:18.671Z,11.78
2019-02-27T22:47:47.778Z,8.40
2019-02-27T22:50:16.935Z,7.40
2019-02-27T22:52:46.082Z,7.97
2019-02-27T22:55:15.223Z,7.35
2019-02-27T22:57:44.299Z,6.57
2019-02-27T23:01:04.264Z,6.95
2019-02-27T23:03:36.758Z,6.37
2019-02-27T23:06:09.282Z,6.00
2019-02-27T23:08:39.143Z,6.05
2019-02-27T23:11:08.971Z,6.00
2019-02-27T23:13:38.194Z,5.90
2019-02-27T23:16:07.648Z,6.43
2019-02-27T23:18:37.340Z,5.87
2019-02-27T23:21:07.622Z,6.22
2019-02-27T23:23:37.438Z,6.65
2019-02-27T23:26:06.663Z,6.08
2019-02-27T23:28:35.753Z,6.17
2019-02-27T23:31:05.187Z,6.33
2019-02-27T23:33:36.629Z,6.40
2019-02-27T23:36:05.065Z,5.70
2019-02-27T23:38:35.010Z,6.27
2019-02-27T23:41:05.122Z,6.62
2019-02-27T23:43:35.119Z,5.97
2019-02-27T23:46:04.486Z,6.20
2019-02-27T23:48:36.087Z,5.90
2019-02-27T23:51:04.638Z,6.93
2019-02-27T23:53:33.778Z,10.93
2019-02-27T23:56:02.932Z,8.65
2019-02-27T23:58:32.010Z,6.07
